METAR Data
IDs: Format: Raw Decoded Include TAF

Data at: 0348 UTC 05 Jun 2020

KLBO 050335Z AUTO 19006KT 10SM SCT040 SCT046 23/20 A2990 RMK AO2
KLBO 050315Z AUTO 18006KT 10SM SCT040 BKN045 23/21 A2989 RMK AO2
KLBO 050255Z AUTO 15005KT 10SM CLR 22/21 A2988 RMK AO2
KLBO 050235Z AUTO 15004KT 10SM CLR 23/21 A2986 RMK AO2
KLBO 050215Z AUTO 13004KT 10SM CLR 24/21 A2985 RMK AO2
KLBO 050155Z AUTO 13003KT 10SM CLR 25/21 A2984 RMK AO2
KLBO 050135Z AUTO 12004KT 10SM CLR 25/21 A2984 RMK AO2
KLBO 050115Z AUTO 15003KT 10SM CLR 26/21 A2984 RMK AO2
KLBO 050055Z AUTO 16004KT 10SM CLR 26/21 A2984 RMK AO2
KLBO 050035Z AUTO 17004KT 10SM CLR 27/20 A2985 RMK AO2
KLBO 050015Z AUTO 16003KT 10SM CLR 27/20 A2984 RMK AO2
KLBO 042355Z AUTO 19003KT 10SM CLR 28/19 A2984 RMK AO2
KLBO 042335Z AUTO 14003KT 10SM CLR 28/19 A2984 RMK AO2
KLBO 042315Z AUTO 26003KT 10SM CLR 28/19 A2984 RMK AO2
KLBO 042255Z AUTO 00000KT 10SM CLR 28/19 A2984 RMK AO2
KLBO 042235Z AUTO 33005KT 10SM CLR 28/19 A2984 RMK AO2
KLBO 042215Z AUTO 00000KT 10SM CLR 28/18 A2985 RMK AO2
KLBO 042155Z AUTO 27003KT 10SM SCT034 SCT041 28/19 A2985 RMK AO2
KLBO 042135Z AUTO 20004KT 10SM BKN034 BKN041 27/19 A2986 RMK AO2
KLBO 042115Z AUTO 16004KT 10SM SCT036 27/18 A2986 RMK AO2
KLBO 042055Z AUTO 20003KT 10SM CLR 28/18 A2986 RMK AO2
KLBO 042035Z AUTO 27004KT 10SM SCT036 28/18 A2986 RMK AO2
KLBO 042015Z AUTO 25006KT 10SM CLR 28/18 A2986 RMK AO2
KLBO 041955Z AUTO 00000KT 10SM CLR 27/18 A2986 RMK AO2
KLBO 041935Z AUTO 00000KT 10SM CLR 27/18 A2987 RMK AO2
KLBO 041915Z AUTO 16003KT 10SM CLR 27/18 A2987 RMK AO2
KLBO 041855Z AUTO 00000KT 10SM CLR 27/18 A2988 RMK AO2
KLBO 041835Z AUTO 12003KT 10SM CLR 26/18 A2988 RMK AO2
KLBO 041815Z AUTO 06004KT 10SM CLR 26/18 A2989 RMK AO2
KLBO 041755Z AUTO 00000KT 10SM CLR 26/17 A2989 RMK AO2
KLBO 041735Z AUTO 11003KT 10SM CLR 26/17 A2990 RMK AO2
KLBO 041715Z AUTO 07005KT 10SM CLR 25/18 A2990 RMK AO2
KLBO 041655Z AUTO 09003KT 10SM CLR 25/18 A2990 RMK AO2
KLBO 041635Z AUTO 00000KT 10SM CLR 23/17 A2989 RMK AO2
KLBO 041615Z AUTO 19003KT 10SM CLR 23/17 A2989 RMK AO2
KLBO 041555Z AUTO 27004KT 10SM CLR 22/17 A2988 RMK AO2
KLBO 041535Z AUTO 26009KT 10SM CLR 22/17 A2987 RMK AO2
KLBO 041515Z AUTO 26012KT 10SM CLR 22/17 A2985 RMK AO2 LTG DSNT SW
KLBO 041455Z AUTO 26008KT 10SM CLR 21/17 A2985 RMK AO2
KLBO 041435Z AUTO 26009KT 10SM CLR 20/18 A2986 RMK AO2
KLBO 041415Z AUTO 27007KT 10SM CLR 18/17 A2986 RMK AO2 LTG DSNT SW
KLBO 041355Z AUTO 23007KT 10SM CLR 18/17 A2984 RMK AO2
KLBO 041335Z AUTO 21003KT 10SM CLR 18/17 A2983 RMK AO2
KLBO 041315Z AUTO 00000KT 10SM CLR 17/16 A2982 RMK AO2
KLBO 041255Z AUTO 11004KT 10SM CLR 18/16 A2982 RMK AO2 P0002 LTG DSNT SE AND W
KLBO 041235Z AUTO 04006KT 10SM SCT002 17/16 A2984 RMK AO2 P0002 LTG DSNT SE
KLBO 041215Z AUTO 03011KT 10SM -RA SCT002 17/16 A2987 RMK AO2 P0001 LTG DSNT SE AND W
KLBO 041155Z AUTO 34006KT 10SM RA BKN002 BKN006 17/16 A2992 RMK AO2 P0020 LTG DSNT SE
KLBO 041135Z AUTO 32011G16KT 7SM +RA OVC004 17/17 A2993 RMK AO2 P0016 LTG DSNT E
KLBO 041115Z AUTO 31014G24KT 4SM RA BKN006 OVC010 17/17 A2997 RMK AO2 P0011 LTG DSNT SE THRU W
KLBO 041055Z AUTO 32013G23KT 2SM +TSRA OVC004 17/17 A2995 RMK AO2 P0054 LTG DSNT SE THRU SW
KLBO 041035Z AUTO 32009G17KT 2SM +TSRA OVC002 18/17 A2991 RMK AO2 P0028 LTG DSNT SE AND SW
KLBO 041015Z AUTO 00000KT 10SM -TSRA OVC002 18/17 A2986 RMK AO2 LTG DSNT SE SW AND NW
KLBO 040955Z AUTO 12003KT 10SM -TSRA OVC004 18/17 A2984 RMK AO2 P0012 LTG DSNT S THRU NW
KLBO 040935Z AUTO 06003KT 7SM VCTSRA BKN004 OVC012 18/17 A2986 RMK AO2 P0011 LTG DSNT ALQS
KLBO 040915Z AUTO 06003KT 7SM TSRA BKN004 OVC012 18/17 A2986 RMK AO2 P0009 LTG DSNT ALQS
KLBO 040855Z AUTO 00000KT 2 1/2SM TSRA OVC004 17/17 A2986 RMK AO2 VIS 1V5 P0013 LTG DSNT ALQS
KLBO 040835Z AUTO 14004KT 10SM TSRA BKN002 OVC009 18/17 A2985 RMK AO2 P0007 LTG DSNT S THRU N
KLBO 040815Z AUTO 13007KT 7SM -TSRA BKN004 OVC007 17/17 A2986 RMK AO2 P0004 LTG DSNT ALQS
KLBO 040755Z AUTO 07009KT 2SM +TSRA OVC004 17/17 A2986 RMK AO2 VIS 1 1/4V4 P0068 LTG DSNT ALQS
KLBO 040735Z AUTO 06010G18KT 4SM +VCTSRA BKN004 OVC009 17/16 A2989 RMK AO2 P0027 LTG DSNT ALQS
KLBO 040715Z AUTO 02015G18KT 4SM +RA SCT002 BKN017 OVC024 18/17 A2990 RMK AO2 P0010 LTG DSNT ALQS
KLBO 040655Z AUTO 36013G19KT 10SM BKN014 BKN024 OVC041 20/17 A2991 RMK AO2 LTG DSNT NW THRU NE
KLBO 040635Z AUTO 02005KT 10SM SCT013 BKN042 BKN080 22/20 A2988 RMK AO2 LTG DSNT N AND NE
KLBO 040615Z AUTO 01005KT 10SM SCT080 21/20 A2987 RMK AO2 LTG DSNT N AND NE
KLBO 040555Z AUTO 18003KT 10SM VCTS CLR 22/20 A2986 RMK AO2 LTG DSNT N AND NE
KLBO 040535Z AUTO 22004KT 10SM SCT085 22/20 A2987 RMK AO2 LTG DSNT N AND NE
KLBO 040515Z AUTO 14003KT 10SM SCT085 22/20 A2989 RMK AO2 LTG DSNT NE
KLBO 040455Z AUTO 19006KT 10SM CLR 22/20 A2987 RMK AO2 LTG DSNT N AND NE
KLBO 040435Z AUTO 20009KT 10SM CLR 22/20 A2986 RMK AO2 LTG DSNT N AND NE
KLBO 040415Z AUTO 20008KT 10SM CLR 22/20 A2987 RMK AO2 LTG DSNT N AND NE
KLBO 040355Z AUTO 19006KT 10SM CLR 22/20 A2987 RMK AO2 LTG DSNT N AND NE
KLBO 040335Z AUTO 17004KT 10SM CLR 22/20 A2988 RMK AO2 LTG DSNT N AND NE
KLBO 040315Z AUTO 18005KT 10SM CLR 23/20 A2988 RMK AO2 LTG DSNT N AND NE
KLBO 040255Z AUTO 19006KT 10SM CLR 23/20 A2988 RMK AO2 LTG DSNT N AND NE
KLBO 040235Z AUTO 19007KT 10SM CLR 23/20 A2986 RMK AO2 LTG DSNT N AND NE
KLBO 040215Z AUTO 20007KT 10SM CLR 24/20 A2986 RMK AO2 LTG DSNT N AND NE
KLBO 040155Z AUTO 19007KT 10SM CLR 25/20 A2986 RMK AO2 LTG DSNT NE
KLBO 040135Z AUTO 20009KT 10SM CLR 25/20 A2986 RMK AO2 LTG DSNT NE
KLBO 040115Z AUTO 18006KT 10SM CLR 26/20 A2987 RMK AO2 LTG DSNT NE
KLBO 040055Z AUTO 19007KT 10SM CLR 26/20 A2988 RMK AO2
KLBO 040035Z AUTO 18010G14KT 10SM SCT045 SCT055 27/20 A2988 RMK AO2
KLBO 040015Z AUTO 18008KT 10SM CLR 27/21 A2988 RMK AO2 LTG DSNT NE
KLBO 032355Z AUTO 18010KT 10SM CLR 28/21 A2988 RMK AO2 LTG DSNT NE
KLBO 032335Z AUTO 17007KT 10SM CLR 29/21 A2986 RMK AO2 LTG DSNT NE
KLBO 032315Z AUTO 20006KT 10SM SCT044 29/21 A2986 RMK AO2 LTG DSNT NE
KLBO 032255Z AUTO 22009KT 10SM CLR 28/20 A2986 RMK AO2
KLBO 032235Z AUTO 21011G18KT 10SM CLR 30/20 A2987 RMK AO2 LTG DSNT SE
KLBO 032215Z AUTO 24006KT 10SM SCT043 SCT070 31/18 A2987 RMK AO2
KLBO 032155Z AUTO 21007KT 10SM SCT042 31/20 A2988 RMK AO2
KLBO 032135Z AUTO 20005KT 10SM CLR 32/18 A2989 RMK AO2 LTG DSNT SE AND S
KLBO 032115Z AUTO 22005KT 10SM CLR 31/18 A2989 RMK AO2 LTG DSNT ALQS
KLBO 032055Z AUTO 26006KT 10SM CLR 31/19 A2988 RMK AO2 LTG DSNT NE AND E
KLBO 032035Z AUTO 22008KT 10SM CLR 31/19 A2990 RMK AO2 LTG DSNT NE THRU SW
KLBO 032015Z AUTO 22006KT 10SM CLR 31/18 A2990 RMK AO2 LTG DSNT SE AND S
KLBO 031955Z AUTO 24006KT 10SM SCT038 31/20 A2991 RMK AO2 LTG DSNT S
KLBO 031935Z AUTO 24006KT 10SM SCT038 30/19 A2992 RMK AO2 LTG DSNT S
KLBO 031915Z AUTO 26008KT 10SM SCT038 SCT095 31/21 A2992 RMK AO2 LTG DSNT SE AND S
KLBO 031855Z AUTO 27003KT 10SM SCT038 30/21 A2993 RMK AO2 LTG DSNT S
KLBO 031835Z AUTO 24011G16KT 10SM VCTS CLR 30/21 A2994 RMK AO2 LTG DSNT NE THRU S
KLBO 031815Z AUTO 23009KT 10SM CLR 30/21 A2995 RMK AO2 LTG DSNT SW
KLBO 031755Z AUTO 24009KT 10SM CLR 30/20 A2996 RMK AO2
KLBO 031735Z AUTO 25009G14KT 10SM SCT032 30/20 A2996 RMK AO2
KLBO 031715Z AUTO 25010KT 10SM SCT032 30/20 A2997 RMK AO2
KLBO 031655Z AUTO 23009KT 10SM SCT032 29/20 A2997 RMK AO2 LTG DSNT S
KLBO 031635Z AUTO 27012G18KT 10SM CLR 28/20 A2998 RMK AO2 LTG DSNT S
KLBO 031615Z AUTO 25008KT 10SM CLR 28/20 A2998 RMK AO2
KLBO 031555Z AUTO 23011KT 10SM CLR 28/20 A2998 RMK AO2